sensor_id;sensor_type;location;lat;lon;timestamp;pressure;altitude;pressure_sealevel;temperature
73673;BMP280;61972;19.480;-99.240;2023-12-28T00:00:21;77569.06;;;23.19
73673;BMP280;61972;19.480;-99.240;2023-12-28T00:02:47;77566.44;;;23.19
73673;BMP280;61972;19.480;-99.240;2023-12-28T00:05:13;77562.72;;;23.18
73673;BMP280;61972;19.480;-99.240;2023-12-28T00:07:39;77573.53;;;23.16
73673;BMP280;61972;19.480;-99.240;2023-12-28T00:10:06;77572.97;;;23.16
73673;BMP280;61972;19.480;-99.240;2023-12-28T00:12:32;77578.53;;;23.14
73673;BMP280;61972;19.480;-99.240;2023-12-28T00:14:58;77587.88;;;23.13
73673;BMP280;61972;19.480;-99.240;2023-12-28T00:17:25;77581.00;;;23.11
73673;BMP280;61972;19.480;-99.240;2023-12-28T00:19:51;77576.16;;;23.09
73673;BMP280;61972;19.480;-99.240;2023-12-28T00:22:17;77582.84;;;23.08
73673;BMP280;61972;19.480;-99.240;2023-12-28T00:24:43;77592.16;;;23.07
73673;BMP280;61972;19.480;-99.240;2023-12-28T00:27:09;77590.50;;;23.05
73673;BMP280;61972;19.480;-99.240;2023-12-28T00:29:35;77587.31;;;23.05
73673;BMP280;61972;19.480;-99.240;2023-12-28T00:32:07;77585.09;;;23.03
73673;BMP280;61972;19.480;-99.240;2023-12-28T00:34:33;77587.69;;;23.03
73673;BMP280;61972;19.480;-99.240;2023-12-28T00:36:59;77587.69;;;23.03
73673;BMP280;61972;19.480;-99.240;2023-12-28T00:39:26;77591.78;;;23.02
73673;BMP280;61972;19.480;-99.240;2023-12-28T00:41:52;77591.78;;;23.02
73673;BMP280;61972;19.480;-99.240;2023-12-28T00:44:18;77593.28;;;23.01
73673;BMP280;61972;19.480;-99.240;2023-12-28T00:46:44;77597.00;;;23.02
73673;BMP280;61972;19.480;-99.240;2023-12-28T00:49:10;77596.44;;;23.01
73673;BMP280;61972;19.480;-99.240;2023-12-28T00:51:36;77600.72;;;23.03
73673;BMP280;61972;19.480;-99.240;2023-12-28T00:54:03;77601.28;;;23.03
73673;BMP280;61972;19.480;-99.240;2023-12-28T00:56:29;77614.84;;;23.04
73673;BMP280;61972;19.480;-99.240;2023-12-28T00:58:55;77604.44;;;23.04
73673;BMP280;61972;19.480;-99.240;2023-12-28T01:01:21;77615.97;;;23.05
73673;BMP280;61972;19.480;-99.240;2023-12-28T01:03:47;77604.06;;;23.06
73673;BMP280;61972;19.480;-99.240;2023-12-28T01:06:14;77604.06;;;23.06
73673;BMP280;61972;19.480;-99.240;2023-12-28T01:08:40;77606.50;;;23.03
73673;BMP280;61972;19.480;-99.240;2023-12-28T01:11:06;77617.84;;;23.02
73673;BMP280;61972;19.480;-99.240;2023-12-28T01:13:32;77618.22;;;23.00
73673;BMP280;61972;19.480;-99.240;2023-12-28T01:15:58;77626.41;;;22.98
73673;BMP280;61972;19.480;-99.240;2023-12-28T01:18:24;77626.78;;;22.96
73673;BMP280;61972;19.480;-99.240;2023-12-28T01:20:50;77639.63;;;22.93
73673;BMP280;61972;19.480;-99.240;2023-12-28T01:23:17;77635.16;;;22.89
73673;BMP280;61972;19.480;-99.240;2023-12-28T01:25:43;77637.94;;;22.84
73673;BMP280;61972;19.480;-99.240;2023-12-28T01:28:09;77642.78;;;22.79
73673;BMP280;61972;19.480;-99.240;2023-12-28T01:30:35;77648.16;;;22.74
73673;BMP280;61972;19.480;-99.240;2023-12-28T01:33:01;77647.81;;;22.69
73673;BMP280;61972;19.480;-99.240;2023-12-28T01:35:27;77646.84;;;22.64
73673;BMP280;61972;19.480;-99.240;2023-12-28T01:37:53;77639.22;;;22.59
73673;BMP280;61972;19.480;-99.240;2023-12-28T01:40:20;77649.28;;;22.54
73673;BMP280;61972;19.480;-99.240;2023-12-28T01:42:46;77647.75;;;22.48
73673;BMP280;61972;19.480;-99.240;2023-12-28T01:45:12;77652.63;;;22.43
73673;BMP280;61972;19.480;-99.240;2023-12-28T01:47:39;77662.09;;;22.37
73673;BMP280;61972;19.480;-99.240;2023-12-28T01:50:07;77659.09;;;22.32
73673;BMP280;61972;19.480;-99.240;2023-12-28T01:52:33;77656.09;;;22.27
73673;BMP280;61972;19.480;-99.240;2023-12-28T01:55:00;77662.59;;;22.23
73673;BMP280;61972;19.480;-99.240;2023-12-28T01:57:27;77671.69;;;22.19
73673;BMP280;61972;19.480;-99.240;2023-12-28T01:59:53;77678.19;;;22.16
73673;BMP280;61972;19.480;-99.240;2023-12-28T02:02:22;77683.53;;;22.11
73673;BMP280;61972;19.480;-99.240;2023-12-28T02:04:48;77679.09;;;22.07
73673;BMP280;61972;19.480;-99.240;2023-12-28T02:07:14;77691.34;;;22.04
73673;BMP280;61972;19.480;-99.240;2023-12-28T02:09:40;77689.44;;;22.00
73673;BMP280;61972;19.480;-99.240;2023-12-28T02:12:07;77691.31;;;21.97
73673;BMP280;61972;19.480;-99.240;2023-12-28T02:14:33;77699.84;;;21.93
73673;BMP280;61972;19.480;-99.240;2023-12-28T02:17:25;77705.41;;;21.91
73673;BMP280;61972;19.480;-99.240;2023-12-28T02:19:55;77706.69;;;21.87
73673;BMP280;61972;19.480;-99.240;2023-12-28T02:22:24;77708.53;;;21.84
73673;BMP280;61972;19.480;-99.240;2023-12-28T02:27:43;77704.78;;;21.76
73673;BMP280;61972;19.480;-99.240;2023-12-28T02:30:12;77708.66;;;21.72
73673;BMP280;61972;19.480;-99.240;2023-12-28T02:32:47;77713.13;;;21.69
73673;BMP280;61972;19.480;-99.240;2023-12-28T02:37:58;77720.16;;;21.66
73673;BMP280;61972;19.480;-99.240;2023-12-28T02:40:25;77715.88;;;21.64
73673;BMP280;61972;19.480;-99.240;2023-12-28T02:42:52;77721.97;;;21.63
73673;BMP280;61972;19.480;-99.240;2023-12-28T02:45:18;77724.94;;;21.61
73673;BMP280;61972;19.480;-99.240;2023-12-28T02:47:45;77718.06;;;21.59
73673;BMP280;61972;19.480;-99.240;2023-12-28T02:50:14;77712.69;;;21.57
73673;BMP280;61972;19.480;-99.240;2023-12-28T02:52:40;77713.03;;;21.55
73673;BMP280;61972;19.480;-99.240;2023-12-28T02:55:06;77707.25;;;21.54
73673;BMP280;61972;19.480;-99.240;2023-12-28T02:57:32;77702.63;;;21.55
73673;BMP280;61972;19.480;-99.240;2023-12-28T02:59:59;77706.72;;;21.54
73673;BMP280;61972;19.480;-99.240;2023-12-28T03:02:28;77715.28;;;21.57
73673;BMP280;61972;19.480;-99.240;2023-12-28T03:04:54;77716.41;;;21.58
73673;BMP280;61972;19.480;-99.240;2023-12-28T03:07:21;77714.53;;;21.61
73673;BMP280;61972;19.480;-99.240;2023-12-28T03:09:47;77723.09;;;21.64
73673;BMP280;61972;19.480;-99.240;2023-12-28T03:12:13;77722.94;;;21.69
73673;BMP280;61972;19.480;-99.240;2023-12-28T03:14:41;77728.34;;;21.71
73673;BMP280;61972;19.480;-99.240;2023-12-28T03:17:07;77735.41;;;21.75
73673;BMP280;61972;19.480;-99.240;2023-12-28T03:19:33;77732.47;;;21.77
73673;BMP280;61972;19.480;-99.240;2023-12-28T03:21:59;77741.56;;;21.81
73673;BMP280;61972;19.480;-99.240;2023-12-28T03:24:25;77744.00;;;21.86
73673;BMP280;61972;19.480;-99.240;2023-12-28T03:26:52;77737.31;;;21.87
73673;BMP280;61972;19.480;-99.240;2023-12-28T03:29:19;77738.66;;;21.90
73673;BMP280;61972;19.480;-99.240;2023-12-28T03:31:45;77738.28;;;21.92
73673;BMP280;61972;19.480;-99.240;2023-12-28T03:34:12;77736.44;;;21.95
73673;BMP280;61972;19.480;-99.240;2023-12-28T03:36:38;77743.91;;;21.97
73673;BMP280;61972;19.480;-99.240;2023-12-28T03:39:04;77740.38;;;21.99
73673;BMP280;61972;19.480;-99.240;2023-12-28T03:41:31;77743.72;;;22.02
73673;BMP280;61972;19.480;-99.240;2023-12-28T03:43:57;77750.03;;;22.03
73673;BMP280;61972;19.480;-99.240;2023-12-28T03:46:24;77750.81;;;22.06
73673;BMP280;61972;19.480;-99.240;2023-12-28T03:48:50;77762.31;;;22.07
73673;BMP280;61972;19.480;-99.240;2023-12-28T03:51:16;77758.25;;;22.08
73673;BMP280;61972;19.480;-99.240;2023-12-28T03:53:42;77753.06;;;22.08
73673;BMP280;61972;19.480;-99.240;2023-12-28T03:56:18;77746.38;;;22.09
73673;BMP280;61972;19.480;-99.240;2023-12-28T03:58:44;77743.94;;;22.12
73673;BMP280;61972;19.480;-99.240;2023-12-28T04:01:11;77747.09;;;22.12
73673;BMP280;61972;19.480;-99.240;2023-12-28T04:03:37;77749.72;;;22.12
73673;BMP280;61972;19.480;-99.240;2023-12-28T04:06:04;77749.72;;;22.12
73673;BMP280;61972;19.480;-99.240;2023-12-28T04:08:30;77753.44;;;22.13
73673;BMP280;61972;19.480;-99.240;2023-12-28T04:10:56;77754.91;;;22.12
73673;BMP280;61972;19.480;-99.240;2023-12-28T04:13:22;77760.13;;;22.12
73673;BMP280;61972;19.480;-99.240;2023-12-28T04:15:48;77765.91;;;22.13
73673;BMP280;61972;19.480;-99.240;2023-12-28T04:18:14;77764.78;;;22.12
73673;BMP280;61972;19.480;-99.240;2023-12-28T04:20:42;77759.94;;;22.10
73673;BMP280;61972;19.480;-99.240;2023-12-28T04:23:10;77752.69;;;22.10
73673;BMP280;61972;19.480;-99.240;2023-12-28T04:25:37;77757.34;;;22.10
73673;BMP280;61972;19.480;-99.240;2023-12-28T04:28:03;77743.78;;;22.09
73673;BMP280;61972;19.480;-99.240;2023-12-28T04:30:29;77746.38;;;22.09
73673;BMP280;61972;19.480;-99.240;2023-12-28T04:32:55;77745.78;;;22.09
73673;BMP280;61972;19.480;-99.240;2023-12-28T04:35:21;77742.84;;;22.11
73673;BMP280;61972;19.480;-99.240;2023-12-28T04:37:48;77741.16;;;22.09
73673;BMP280;61972;19.480;-99.240;2023-12-28T04:40:14;77742.28;;;22.10
73673;BMP280;61972;19.480;-99.240;2023-12-28T04:42:41;77740.59;;;22.09
73673;BMP280;61972;19.480;-99.240;2023-12-28T04:45:07;77740.03;;;22.08
73673;BMP280;61972;19.480;-99.240;2023-12-28T04:47:34;77744.66;;;22.08
73673;BMP280;61972;19.480;-99.240;2023-12-28T04:50:00;77742.66;;;22.08
73673;BMP280;61972;19.480;-99.240;2023-12-28T04:52:26;77746.38;;;22.09
73673;BMP280;61972;19.480;-99.240;2023-12-28T04:54:52;77750.09;;;22.10
73673;BMP280;61972;19.480;-99.240;2023-12-28T04:57:18;77764.78;;;22.12
73673;BMP280;61972;19.480;-99.240;2023-12-28T04:59:44;77760.13;;;22.12
73673;BMP280;61972;19.480;-99.240;2023-12-28T05:02:17;77760.13;;;22.12
73673;BMP280;61972;19.480;-99.240;2023-12-28T05:04:43;77762.72;;;22.12
73673;BMP280;61972;19.480;-99.240;2023-12-28T05:07:09;77765.91;;;22.13
73673;BMP280;61972;19.480;-99.240;2023-12-28T05:09:35;77767.56;;;22.14
73673;BMP280;61972;19.480;-99.240;2023-12-28T05:12:02;77758.63;;;22.13
73673;BMP280;61972;19.480;-99.240;2023-12-28T05:14:28;77767.56;;;22.14
73673;BMP280;61972;19.480;-99.240;2023-12-28T05:16:54;77764.97;;;22.14
73673;BMP280;61972;19.480;-99.240;2023-12-28T05:19:20;77761.25;;;22.13
73673;BMP280;61972;19.480;-99.240;2023-12-28T05:21:47;77766.44;;;22.13
73673;BMP280;61972;19.480;-99.240;2023-12-28T05:24:13;77766.44;;;22.13
73673;BMP280;61972;19.480;-99.240;2023-12-28T05:26:39;77764.19;;;22.11
73673;BMP280;61972;19.480;-99.240;2023-12-28T05:29:05;77770.91;;;22.10
73673;BMP280;61972;19.480;-99.240;2023-12-28T05:31:31;77772.75;;;22.07
73673;BMP280;61972;19.480;-99.240;2023-12-28T05:33:58;77773.09;;;22.05
73673;BMP280;61972;19.480;-99.240;2023-12-28T05:36:24;77766.78;;;22.04
73673;BMP280;61972;19.480;-99.240;2023-12-28T05:38:50;77764.00;;;22.01
73673;BMP280;61972;19.480;-99.240;2023-12-28T05:41:17;77765.81;;;21.98
73673;BMP280;61972;19.480;-99.240;2023-12-28T05:43:43;77770.81;;;21.96
73673;BMP280;61972;19.480;-99.240;2023-12-28T05:46:09;77769.16;;;21.94
73673;BMP280;61972;19.480;-99.240;2023-12-28T05:48:35;77767.84;;;21.91
73673;BMP280;61972;19.480;-99.240;2023-12-28T05:51:01;77766.16;;;21.89
73673;BMP280;61972;19.480;-99.240;2023-12-28T05:53:28;77763.31;;;21.87
73673;BMP280;61972;19.480;-99.240;2023-12-28T05:55:54;77764.63;;;21.83
73673;BMP280;61972;19.480;-99.240;2023-12-28T05:58:21;77768.16;;;21.81
73673;BMP280;61972;19.480;-99.240;2023-12-28T06:00:47;77768.88;;;21.77
73673;BMP280;61972;19.480;-99.240;2023-12-28T06:03:14;77763.47;;;21.75
73673;BMP280;61972;19.480;-99.240;2023-12-28T06:05:43;77766.63;;;21.75
73673;BMP280;61972;19.480;-99.240;2023-12-28T06:08:09;77770.16;;;21.74
73673;BMP280;61972;19.480;-99.240;2023-12-28T06:10:36;77771.44;;;21.70
73673;BMP280;61972;19.480;-99.240;2023-12-28T06:13:03;77780.47;;;21.66
73673;BMP280;61972;19.480;-99.240;2023-12-28T06:15:29;77772.31;;;21.61
73673;BMP280;61972;19.480;-99.240;2023-12-28T06:17:55;77763.72;;;21.58
73673;BMP280;61972;19.480;-99.240;2023-12-28T06:20:21;77775.78;;;21.53
73673;BMP280;61972;19.480;-99.240;2023-12-28T06:22:47;77770.16;;;21.47
73673;BMP280;61972;19.480;-99.240;2023-12-28T06:25:14;77762.16;;;21.45
73673;BMP280;61972;19.480;-99.240;2023-12-28T06:27:40;77759.72;;;21.40
73673;BMP280;61972;19.480;-99.240;2023-12-28T06:30:07;77764.16;;;21.37
73673;BMP280;61972;19.480;-99.240;2023-12-28T06:32:50;77766.91;;;21.33
73673;BMP280;61972;19.480;-99.240;2023-12-28T06:35:35;77759.25;;;21.28
73673;BMP280;61972;19.480;-99.240;2023-12-28T06:41:23;77764.22;;;21.25
73673;BMP280;61972;19.480;-99.240;2023-12-28T06:43:49;77763.13;;;21.24
73673;BMP280;61972;19.480;-99.240;2023-12-28T06:46:16;77763.66;;;21.25
73673;BMP280;61972;19.480;-99.240;2023-12-28T06:48:42;77763.13;;;21.24
73673;BMP280;61972;19.480;-99.240;2023-12-28T06:51:21;77759.59;;;21.26
73673;BMP280;61972;19.480;-99.240;2023-12-28T06:53:48;77761.84;;;21.28
73673;BMP280;61972;19.480;-99.240;2023-12-28T06:56:14;77761.84;;;21.28
73673;BMP280;61972;19.480;-99.240;2023-12-28T06:58:41;77761.84;;;21.28
73673;BMP280;61972;19.480;-99.240;2023-12-28T07:01:07;77766.31;;;21.32
73673;BMP280;61972;19.480;-99.240;2023-12-28T07:03:36;77765.97;;;21.34
73673;BMP280;61972;19.480;-99.240;2023-12-28T07:06:03;77773.06;;;21.38
73673;BMP280;61972;19.480;-99.240;2023-12-28T07:08:29;77772.72;;;21.40
73673;BMP280;61972;19.480;-99.240;2023-12-28T07:10:55;77764.56;;;21.42
73673;BMP280;61972;19.480;-99.240;2023-12-28T07:13:22;77768.47;;;21.46
73673;BMP280;61972;19.480;-99.240;2023-12-28T07:15:49;77779.06;;;21.48
73673;BMP280;61972;19.480;-99.240;2023-12-28T07:18:15;77772.97;;;21.50
73673;BMP280;61972;19.480;-99.240;2023-12-28T07:20:41;77770.56;;;21.53
73673;BMP280;61972;19.480;-99.240;2023-12-28T07:23:07;77766.50;;;21.54
73673;BMP280;61972;19.480;-99.240;2023-12-28T07:25:34;77765.00;;;21.55
73673;BMP280;61972;19.480;-99.240;2023-12-28T07:28:04;77760.94;;;21.56
73673;BMP280;61972;19.480;-99.240;2023-12-28T07:30:30;77758.53;;;21.58
73673;BMP280;61972;19.480;-99.240;2023-12-28T07:32:56;77760.19;;;21.60
73673;BMP280;61972;19.480;-99.240;2023-12-28T07:35:23;77750.94;;;21.61
73673;BMP280;61972;19.480;-99.240;2023-12-28T07:37:49;77742.78;;;21.63
73673;BMP280;61972;19.480;-99.240;2023-12-28T07:40:15;77745.03;;;21.65
73673;BMP280;61972;19.480;-99.240;2023-12-28T07:42:41;77727.94;;;21.66
73673;BMP280;61972;19.480;-99.240;2023-12-28T07:45:08;77735.75;;;21.66
73673;BMP280;61972;19.480;-99.240;2023-12-28T07:47:34;77734.81;;;21.68
73673;BMP280;61972;19.480;-99.240;2023-12-28T07:50:00;77728.72;;;21.69
73673;BMP280;61972;19.480;-99.240;2023-12-28T07:52:28;77723.50;;;21.69
73673;BMP280;61972;19.480;-99.240;2023-12-28T07:54:54;77726.28;;;21.72
73673;BMP280;61972;19.480;-99.240;2023-12-28T07:57:21;77726.84;;;21.72
73673;BMP280;61972;19.480;-99.240;2023-12-28T07:59:47;77734.31;;;21.74
73673;BMP280;61972;19.480;-99.240;2023-12-28T08:02:13;77722.78;;;21.73
73673;BMP280;61972;19.480;-99.240;2023-12-28T08:04:40;77728.19;;;21.76
73673;BMP280;61972;19.480;-99.240;2023-12-28T08:07:06;77726.13;;;21.76
73673;BMP280;61972;19.480;-99.240;2023-12-28T08:09:32;77724.84;;;21.80
73673;BMP280;61972;19.480;-99.240;2023-12-28T08:11:59;77720.78;;;21.81
73673;BMP280;61972;19.480;-99.240;2023-12-28T08:14:25;77715.03;;;21.80
73673;BMP280;61972;19.480;-99.240;2023-12-28T08:16:51;77723.94;;;21.81
73673;BMP280;61972;19.480;-99.240;2023-12-28T08:19:18;77723.56;;;21.83
73673;BMP280;61972;19.480;-99.240;2023-12-28T08:21:44;77723.94;;;21.81
73673;BMP280;61972;19.480;-99.240;2023-12-28T08:24:10;77706.88;;;21.82
73673;BMP280;61972;19.480;-99.240;2023-12-28T08:26:36;77705.75;;;21.81
73673;BMP280;61972;19.480;-99.240;2023-12-28T08:29:02;77710.38;;;21.81
73673;BMP280;61972;19.480;-99.240;2023-12-28T08:31:28;77696.63;;;21.78
73673;BMP280;61972;19.480;-99.240;2023-12-28T08:33:55;77694.94;;;21.76
73673;BMP280;61972;19.480;-99.240;2023-12-28T08:36:22;77694.75;;;21.74
73673;BMP280;61972;19.480;-99.240;2023-12-28T08:38:51;77704.56;;;21.73
73673;BMP280;61972;19.480;-99.240;2023-12-28T08:41:21;77706.63;;;21.73
73673;BMP280;61972;19.480;-99.240;2023-12-28T08:43:50;77695.66;;;21.72
73673;BMP280;61972;19.480;-99.240;2023-12-28T08:46:17;77700.84;;;21.72
73673;BMP280;61972;19.480;-99.240;2023-12-28T08:48:44;77699.16;;;21.71
73673;BMP280;61972;19.480;-99.240;2023-12-28T08:51:10;77699.16;;;21.71
73673;BMP280;61972;19.480;-99.240;2023-12-28T08:53:37;77696.94;;;21.69
73673;BMP280;61972;19.480;-99.240;2023-12-28T08:56:21;77698.22;;;21.65
73673;BMP280;61972;19.480;-99.240;2023-12-28T08:58:49;77697.09;;;21.64
73673;BMP280;61972;19.480;-99.240;2023-12-28T09:01:23;77695.97;;;21.63
73673;BMP280;61972;19.480;-99.240;2023-12-28T09:03:53;77703.59;;;21.60
73673;BMP280;61972;19.480;-99.240;2023-12-28T09:10:17;77706.72;;;21.54
73673;BMP280;61972;19.480;-99.240;2023-12-28T09:19:13;77708.69;;;21.46
73673;BMP280;61972;19.480;-99.240;2023-12-28T09:21:45;77714.59;;;21.42
73673;BMP280;61972;19.480;-99.240;2023-12-28T09:24:11;77706.28;;;21.41
73673;BMP280;61972;19.480;-99.240;2023-12-28T09:26:37;77706.63;;;21.39
73673;BMP280;61972;19.480;-99.240;2023-12-28T09:29:03;77706.44;;;21.37
73673;BMP280;61972;19.480;-99.240;2023-12-28T09:31:30;77703.59;;;21.34
73673;BMP280;61972;19.480;-99.240;2023-12-28T09:33:56;77705.06;;;21.33
73673;BMP280;61972;19.480;-99.240;2023-12-28T09:36:22;77706.56;;;21.32
73673;BMP280;61972;19.480;-99.240;2023-12-28T09:38:49;77704.88;;;21.30
73673;BMP280;61972;19.480;-99.240;2023-12-28T09:42:16;77701.75;;;21.30
73673;BMP280;61972;19.480;-99.240;2023-12-28T09:44:43;77700.59;;;21.29
73673;BMP280;61972;19.480;-99.240;2023-12-28T09:47:10;77694.31;;;21.28
73673;BMP280;61972;19.480;-99.240;2023-12-28T09:49:40;77692.06;;;21.26
73673;BMP280;61972;19.480;-99.240;2023-12-28T09:52:08;77687.97;;;21.27
73673;BMP280;61972;19.480;-99.240;2023-12-28T09:54:37;77688.88;;;21.25
73673;BMP280;61972;19.480;-99.240;2023-12-28T09:57:06;77684.63;;;21.24
73673;BMP280;61972;19.480;-99.240;2023-12-28T09:59:33;77676.84;;;21.24
73673;BMP280;61972;19.480;-99.240;2023-12-28T10:02:00;77674.22;;;21.24
73673;BMP280;61972;19.480;-99.240;2023-12-28T10:04:28;77685.72;;;21.25
73673;BMP280;61972;19.480;-99.240;2023-12-28T10:06:57;77682.94;;;21.22
73673;BMP280;61972;19.480;-99.240;2023-12-28T10:09:26;77680.34;;;21.22
73673;BMP280;61972;19.480;-99.240;2023-12-28T10:11:56;77687.00;;;21.21
73673;BMP280;61972;19.480;-99.240;2023-12-28T10:14:25;77686.44;;;21.21
73673;BMP280;61972;19.480;-99.240;2023-12-28T10:16:51;77685.34;;;21.20
73673;BMP280;61972;19.480;-99.240;2023-12-28T10:19:24;77677.34;;;21.17
73673;BMP280;61972;19.480;-99.240;2023-12-28T10:21:50;77677.16;;;21.15
73673;BMP280;61972;19.480;-99.240;2023-12-28T10:24:22;77671.19;;;21.11
73673;BMP280;61972;19.480;-99.240;2023-12-28T10:26:55;77678.19;;;21.08
73673;BMP280;61972;19.480;-99.240;2023-12-28T10:29:24;77680.25;;;21.08
73673;BMP280;61972;19.480;-99.240;2023-12-28T10:31:51;77681.72;;;21.07
73673;BMP280;61972;19.480;-99.240;2023-12-28T10:34:18;77680.06;;;21.05
73673;BMP280;61972;19.480;-99.240;2023-12-28T10:36:46;77689.09;;;21.02
73673;BMP280;61972;19.480;-99.240;2023-12-28T10:39:16;77684.84;;;21.00
73673;BMP280;61972;19.480;-99.240;2023-12-28T10:41:48;77682.59;;;20.98
73673;BMP280;61972;19.480;-99.240;2023-12-28T10:44:20;77684.44;;;20.95
73673;BMP280;61972;19.480;-99.240;2023-12-28T10:46:51;77687.94;;;20.93
73673;BMP280;61972;19.480;-99.240;2023-12-28T10:49:25;77683.66;;;20.92
73673;BMP280;61972;19.480;-99.240;2023-12-28T10:51:52;77682.56;;;20.91
73673;BMP280;61972;19.480;-99.240;2023-12-28T10:57:23;77675.47;;;20.87
73673;BMP280;61972;19.480;-99.240;2023-12-28T11:00:10;77681.59;;;20.85
73673;BMP280;61972;19.480;-99.240;2023-12-28T11:02:44;77679.53;;;20.86
73673;BMP280;61972;19.480;-99.240;2023-12-28T11:05:15;77688.44;;;20.87
73673;BMP280;61972;19.480;-99.240;2023-12-28T11:07:43;77682.13;;;20.86
73673;BMP280;61972;19.480;-99.240;2023-12-28T11:10:10;77689.13;;;20.83
73673;BMP280;61972;19.480;-99.240;2023-12-28T11:12:39;77690.63;;;20.82
73673;BMP280;61972;19.480;-99.240;2023-12-28T11:15:06;77690.63;;;20.82
73673;BMP280;61972;19.480;-99.240;2023-12-28T11:17:33;77686.91;;;20.81
73673;BMP280;61972;19.480;-99.240;2023-12-28T11:20:14;77688.38;;;20.80
73673;BMP280;61972;19.480;-99.240;2023-12-28T11:23:12;77686.50;;;20.75
73673;BMP280;61972;19.480;-99.240;2023-12-28T11:25:38;77696.13;;;20.72
73673;BMP280;61972;19.480;-99.240;2023-12-28T11:28:11;77695.13;;;20.67
73673;BMP280;61972;19.480;-99.240;2023-12-28T11:30:38;77697.13;;;20.59
73673;BMP280;61972;19.480;-99.240;2023-12-28T11:33:04;77697.41;;;20.50
73673;BMP280;61972;19.480;-99.240;2023-12-28T11:35:39;77695.47;;;20.38
73673;BMP280;61972;19.480;-99.240;2023-12-28T11:38:09;77693.72;;;20.30
73673;BMP280;61972;19.480;-99.240;2023-12-28T11:40:45;77697.84;;;20.17
73673;BMP280;61972;19.480;-99.240;2023-12-28T11:43:20;77692.13;;;20.04
73673;BMP280;61972;19.480;-99.240;2023-12-28T11:45:55;77703.13;;;19.93
73673;BMP280;61972;19.480;-99.240;2023-12-28T11:48:25;77698.00;;;19.81
73673;BMP280;61972;19.480;-99.240;2023-12-28T11:50:57;77705.50;;;19.72
73673;BMP280;61972;19.480;-99.240;2023-12-28T11:53:24;77704.06;;;19.61
73673;BMP280;61972;19.480;-99.240;2023-12-28T11:55:51;77710.38;;;19.50
73673;BMP280;61972;19.480;-99.240;2023-12-28T11:58:20;77719.91;;;19.40
73673;BMP280;61972;19.480;-99.240;2023-12-28T12:00:47;77724.41;;;19.32
73673;BMP280;61972;19.480;-99.240;2023-12-28T12:03:14;77731.88;;;19.22
73673;BMP280;61972;19.480;-99.240;2023-12-28T12:05:42;77732.44;;;19.11
73673;BMP280;61972;19.480;-99.240;2023-12-28T12:08:09;77726.59;;;19.03
73673;BMP280;61972;19.480;-99.240;2023-12-28T12:10:40;77739.78;;;18.94
73673;BMP280;61972;19.480;-99.240;2023-12-28T12:13:08;77728.56;;;18.84
73673;BMP280;61972;19.480;-99.240;2023-12-28T12:15:34;77734.16;;;18.77
73673;BMP280;61972;19.480;-99.240;2023-12-28T12:18:01;77736.66;;;18.70
73673;BMP280;61972;19.480;-99.240;2023-12-28T12:20:29;77740.25;;;18.63
73673;BMP280;61972;19.480;-99.240;2023-12-28T12:23:01;77746.75;;;18.55
73673;BMP280;61972;19.480;-99.240;2023-12-28T12:25:28;77750.34;;;18.49
73673;BMP280;61972;19.480;-99.240;2023-12-28T12:27:55;77757.66;;;18.44
73673;BMP280;61972;19.480;-99.240;2023-12-28T12:30:21;77756.06;;;18.38
73673;BMP280;61972;19.480;-99.240;2023-12-28T12:32:48;77753.59;;;18.33
73673;BMP280;61972;19.480;-99.240;2023-12-28T12:35:14;77755.16;;;18.27
73673;BMP280;61972;19.480;-99.240;2023-12-28T12:37:40;77766.16;;;18.23
73673;BMP280;61972;19.480;-99.240;2023-12-28T12:40:07;77771.44;;;18.19
73673;BMP280;61972;19.480;-99.240;2023-12-28T12:42:34;77777.63;;;18.12
73673;BMP280;61972;19.480;-99.240;2023-12-28T12:45:01;77777.16;;;18.07
73673;BMP280;61972;19.480;-99.240;2023-12-28T12:47:32;77773.53;;;18.02
73673;BMP280;61972;19.480;-99.240;2023-12-28T12:50:00;77777.91;;;17.99
73673;BMP280;61972;19.480;-99.240;2023-12-28T12:52:26;77789.25;;;17.92
73673;BMP280;61972;19.480;-99.240;2023-12-28T12:54:56;77789.34;;;17.88
73673;BMP280;61972;19.480;-99.240;2023-12-28T12:57:24;77787.38;;;17.84
73673;BMP280;61972;19.480;-99.240;2023-12-28T12:59:52;77792.66;;;17.79
73673;BMP280;61972;19.480;-99.240;2023-12-28T13:02:18;77789.84;;;17.76
73673;BMP280;61972;19.480;-99.240;2023-12-28T13:04:44;77791.41;;;17.71
73673;BMP280;61972;19.480;-99.240;2023-12-28T13:07:10;77798.91;;;17.68
73673;BMP280;61972;19.480;-99.240;2023-12-28T13:09:37;77802.69;;;17.65
73673;BMP280;61972;19.480;-99.240;2023-12-28T13:12:04;77807.09;;;17.62
73673;BMP280;61972;19.480;-99.240;2023-12-28T13:14:30;77816.59;;;17.58
73673;BMP280;61972;19.480;-99.240;2023-12-28T13:16:56;77809.50;;;17.54
73673;BMP280;61972;19.480;-99.240;2023-12-28T13:19:22;77801.53;;;17.52
73673;BMP280;61972;19.480;-99.240;2023-12-28T13:21:48;77809.03;;;17.49
73673;BMP280;61972;19.480;-99.240;2023-12-28T13:24:14;77805.09;;;17.46
73673;BMP280;61972;19.480;-99.240;2023-12-28T13:26:41;77810.00;;;17.43
73673;BMP280;61972;19.480;-99.240;2023-12-28T13:29:07;77812.38;;;17.40
73673;BMP280;61972;19.480;-99.240;2023-12-28T13:31:34;77810.09;;;17.38
73673;BMP280;61972;19.480;-99.240;2023-12-28T13:34:00;77806.16;;;17.35
73673;BMP280;61972;19.480;-99.240;2023-12-28T13:36:26;77812.78;;;17.34
73673;BMP280;61972;19.480;-99.240;2023-12-28T13:38:54;77828.91;;;17.30
73673;BMP280;61972;19.480;-99.240;2023-12-28T13:41:20;77828.09;;;17.27
73673;BMP280;61972;19.480;-99.240;2023-12-28T13:43:46;77827.28;;;17.23
73673;BMP280;61972;19.480;-99.240;2023-12-28T13:46:12;77825.59;;;17.22
73673;BMP280;61972;19.480;-99.240;2023-12-28T13:48:38;77833.34;;;17.22
73673;BMP280;61972;19.480;-99.240;2023-12-28T13:51:06;77834.56;;;17.18
73673;BMP280;61972;19.480;-99.240;2023-12-28T13:53:32;77825.13;;;17.17
73673;BMP280;61972;19.480;-99.240;2023-12-28T13:56:01;77838.91;;;17.15
73673;BMP280;61972;19.480;-99.240;2023-12-28T13:58:28;77844.38;;;17.13
73673;BMP280;61972;19.480;-99.240;2023-12-28T14:00:54;77845.28;;;17.12
73673;BMP280;61972;19.480;-99.240;2023-12-28T14:03:20;77848.19;;;17.10
73673;BMP280;61972;19.480;-99.240;2023-12-28T14:05:47;77855.69;;;17.07
73673;BMP280;61972;19.480;-99.240;2023-12-28T14:08:13;77850.84;;;17.05